createdAt,value
2022-08-30T00:01:29.413Z,93.50
2022-08-30T00:03:58.594Z,93.80
2022-08-30T00:06:28.700Z,93.90
2022-08-30T00:08:57.409Z,94.10
2022-08-30T00:11:28.185Z,94.40
2022-08-30T00:13:58.184Z,94.70
2022-08-30T00:16:26.870Z,94.90
2022-08-30T00:18:55.334Z,95.00
2022-08-30T00:21:24.003Z,95.10
2022-08-30T00:23:51.220Z,95.30
2022-08-30T00:26:18.604Z,95.40
2022-08-30T00:28:45.885Z,95.70
2022-08-30T00:31:13.552Z,95.80
2022-08-30T00:33:42.733Z,96.10
2022-08-30T00:36:09.963Z,96.10
2022-08-30T00:38:37.395Z,96.40
2022-08-30T00:41:04.950Z,96.70
2022-08-30T00:43:36.718Z,96.60
2022-08-30T00:46:08.740Z,96.90
2022-08-30T00:49:51.025Z,97.00
2022-08-30T00:52:21.681Z,97.70
2022-08-30T00:54:51.414Z,97.30
2022-08-30T00:57:19.517Z,97.30
2022-08-30T00:59:50.076Z,97.50
2022-08-30T01:02:23.738Z,97.70
2022-08-30T01:04:52.768Z,97.70
2022-08-30T01:07:19.965Z,97.80
2022-08-30T01:09:47.314Z,97.70
2022-08-30T01:12:14.880Z,97.80
2022-08-30T01:14:46.079Z,97.80
2022-08-30T01:17:15.495Z,97.80
2022-08-30T01:20:07.200Z,97.90
2022-08-30T01:22:49.291Z,98.30
2022-08-30T01:25:30.412Z,98.20
2022-08-30T01:28:03.573Z,98.60
2022-08-30T01:30:32.597Z,98.20
2022-08-30T01:33:04.247Z,98.20
2022-08-30T01:35:39.243Z,98.40
2022-08-30T01:38:06.711Z,98.70
2022-08-30T01:40:34.224Z,98.40
2022-08-30T01:43:01.409Z,98.40
2022-08-30T01:45:28.983Z,98.50
2022-08-30T01:47:56.302Z,98.70
2022-08-30T01:50:45.778Z,98.70
2022-08-30T01:53:13.245Z,99.30
2022-08-30T01:55:42.237Z,98.70
2022-08-30T01:58:09.536Z,98.90
2022-08-30T02:00:36.739Z,99.00
2022-08-30T02:03:04.552Z,99.10
2022-08-30T02:05:32.210Z,99.20
2022-08-30T02:08:00.738Z,99.00
2022-08-30T02:10:28.841Z,99.10
2022-08-30T02:12:56.073Z,99.20
2022-08-30T02:15:23.330Z,99.20
2022-08-30T02:17:50.554Z,99.30
2022-08-30T02:20:18.010Z,99.40
2022-08-30T02:22:49.434Z,99.30
2022-08-30T02:25:20.393Z,99.50
2022-08-30T02:27:48.816Z,99.40
2022-08-30T02:30:16.240Z,99.50
2022-08-30T02:32:43.458Z,99.50
2022-08-30T02:35:10.895Z,99.60
2022-08-30T02:37:38.178Z,99.80
2022-08-30T02:40:07.780Z,99.90
2022-08-30T02:42:35.847Z,99.90
2022-08-30T02:45:03.963Z,99.90
2022-08-30T02:47:31.485Z,99.90
2022-08-30T02:49:58.747Z,99.90
2022-08-30T02:52:27.972Z,99.90
2022-08-30T02:54:55.427Z,99.90
2022-08-30T02:57:22.980Z,99.90
2022-08-30T02:59:50.659Z,99.90
2022-08-30T03:02:18.536Z,99.90
2022-08-30T03:04:45.979Z,99.90
2022-08-30T03:07:13.525Z,99.90
2022-08-30T03:09:41.309Z,99.90
2022-08-30T03:12:10.159Z,99.90
2022-08-30T03:14:39.655Z,99.90
2022-08-30T03:17:15.374Z,99.90
2022-08-30T03:19:44.229Z,99.90
2022-08-30T03:22:12.682Z,99.90
2022-08-30T03:24:40.635Z,99.90
2022-08-30T03:27:08.439Z,99.90
2022-08-30T03:29:35.908Z,99.90
2022-08-30T03:32:04.191Z,99.90
2022-08-30T03:34:31.580Z,99.90
2022-08-30T03:37:01.405Z,99.90
2022-08-30T03:39:28.797Z,99.90
2022-08-30T03:41:56.116Z,99.90
2022-08-30T03:44:23.623Z,99.90
2022-08-30T03:46:51.983Z,99.90
2022-08-30T03:49:21.081Z,99.90
2022-08-30T03:51:48.883Z,99.90
2022-08-30T03:54:16.449Z,99.90
2022-08-30T03:56:43.879Z,99.90
2022-08-30T03:59:11.237Z,99.90
2022-08-30T04:01:38.502Z,99.90
2022-08-30T04:04:05.854Z,99.90
2022-08-30T04:06:33.530Z,99.90
2022-08-30T04:09:01.156Z,99.90
2022-08-30T04:11:28.521Z,99.90
2022-08-30T04:13:57.015Z,99.90
2022-08-30T04:16:25.678Z,99.90
2022-08-30T04:18:53.185Z,99.90
2022-08-30T04:21:20.388Z,99.90
2022-08-30T04:23:47.639Z,99.90
2022-08-30T04:26:15.625Z,99.90
2022-08-30T04:28:43.002Z,99.90
2022-08-30T04:31:16.656Z,99.90
2022-08-30T04:33:44.811Z,99.90
2022-08-30T04:36:13.934Z,99.90
2022-08-30T04:38:42.546Z,99.90
2022-08-30T04:41:16.468Z,99.90
2022-08-30T04:43:50.714Z,99.90
2022-08-30T04:46:19.430Z,99.90
2022-08-30T04:48:47.922Z,99.90
2022-08-30T04:51:17.820Z,99.90
2022-08-30T04:53:46.356Z,99.90
2022-08-30T04:56:22.499Z,99.90
2022-08-30T04:58:54.327Z,99.90
2022-08-30T05:01:29.327Z,99.90
2022-08-30T05:03:58.697Z,99.90
2022-08-30T05:06:31.214Z,99.90
2022-08-30T05:09:00.667Z,99.90
2022-08-30T05:11:28.947Z,99.90
2022-08-30T05:13:56.506Z,99.90
2022-08-30T05:16:23.865Z,99.90
2022-08-30T05:18:52.911Z,99.90
2022-08-30T05:21:26.712Z,99.90
2022-08-30T05:23:57.042Z,99.90
2022-08-30T05:26:29.293Z,99.90
2022-08-30T05:28:57.807Z,99.90
2022-08-30T05:31:33.822Z,99.90
2022-08-30T05:34:02.096Z,99.90
2022-08-30T05:36:33.719Z,99.90
2022-08-30T05:39:01.344Z,99.90
2022-08-30T05:41:34.566Z,99.90
2022-08-30T05:44:07.349Z,99.90
2022-08-30T05:46:36.040Z,99.90
2022-08-30T05:49:06.166Z,99.90
2022-08-30T05:51:42.999Z,99.90
2022-08-30T05:54:13.743Z,99.90
2022-08-30T05:56:45.643Z,99.90
2022-08-30T05:59:14.804Z,99.90
2022-08-30T06:01:46.387Z,99.90
2022-08-30T06:04:14.865Z,99.90
2022-08-30T06:06:44.436Z,99.90
2022-08-30T06:09:13.925Z,99.90
2022-08-30T06:11:41.809Z,99.90
2022-08-30T06:14:12.053Z,99.90
2022-08-30T06:16:41.165Z,99.90
2022-08-30T06:19:11.202Z,99.90
2022-08-30T06:21:40.598Z,99.90
2022-08-30T06:24:11.298Z,99.90
2022-08-30T06:26:43.286Z,99.90
2022-08-30T06:29:14.476Z,99.90
2022-08-30T06:31:44.632Z,99.90
2022-08-30T06:34:12.233Z,99.90
2022-08-30T06:36:51.757Z,99.90
2022-08-30T06:39:19.041Z,99.90
2022-08-30T06:41:46.356Z,99.90
2022-08-30T06:44:32.624Z,99.90
2022-08-30T06:47:00.242Z,99.90
2022-08-30T06:50:05.689Z,99.90
2022-08-30T06:52:32.982Z,99.90
2022-08-30T06:55:00.188Z,99.90
2022-08-30T06:57:46.972Z,99.90
2022-08-30T07:01:11.602Z,99.90
2022-08-30T07:03:39.070Z,99.90
2022-08-30T07:06:10.587Z,99.90
2022-08-30T07:08:39.611Z,99.90
2022-08-30T07:11:08.324Z,99.90
2022-08-30T07:13:37.727Z,99.90
2022-08-30T07:16:13.639Z,99.90
2022-08-30T07:18:56.724Z,99.90
2022-08-30T07:21:32.828Z,99.90
2022-08-30T07:24:01.500Z,99.90
2022-08-30T07:26:43.638Z,99.90
2022-08-30T07:29:11.305Z,99.90
2022-08-30T07:31:38.674Z,99.90
2022-08-30T07:34:07.534Z,99.90
2022-08-30T07:36:38.357Z,99.90
2022-08-30T07:39:07.937Z,99.90
2022-08-30T07:41:39.157Z,99.90
2022-08-30T07:44:08.818Z,99.90
2022-08-30T07:46:39.104Z,99.90
2022-08-30T07:49:11.019Z,99.90
2022-08-30T07:51:39.630Z,99.90
2022-08-30T07:54:07.425Z,99.90
2022-08-30T07:56:35.474Z,99.90
2022-08-30T07:59:03.084Z,99.90
2022-08-30T08:01:30.968Z,99.90
2022-08-30T08:03:58.418Z,99.90
2022-08-30T08:06:27.926Z,99.90
2022-08-30T08:09:02.727Z,99.90
2022-08-30T08:11:33.875Z,99.90
2022-08-30T08:14:02.847Z,99.80
2022-08-30T08:16:33.075Z,99.80
2022-08-30T08:19:01.045Z,99.70
2022-08-30T08:21:28.751Z,99.50
2022-08-30T08:23:56.027Z,99.40
2022-08-30T08:26:24.053Z,99.40
2022-08-30T08:28:51.415Z,99.20
2022-08-30T08:31:33.108Z,98.90
2022-08-30T08:34:06.178Z,98.70
2022-08-30T08:36:35.749Z,98.70
2022-08-30T08:39:06.547Z,98.50
2022-08-30T08:42:20.464Z,98.30
2022-08-30T08:45:13.454Z,97.90
2022-08-30T08:48:08.135Z,97.60
2022-08-30T08:50:36.502Z,97.60
2022-08-30T08:53:45.828Z,97.40
2022-08-30T08:56:19.365Z,97.00
2022-08-30T08:58:53.532Z,96.80
2022-08-30T09:01:25.393Z,96.50
2022-08-30T09:03:52.974Z,96.30
2022-08-30T09:06:45.183Z,95.80
2022-08-30T09:09:14.106Z,95.40
2022-08-30T09:11:44.369Z,95.40
2022-08-30T09:14:20.794Z,95.20
2022-08-30T09:17:10.891Z,94.60
2022-08-30T09:19:46.432Z,94.00
2022-08-30T09:22:40.670Z,93.80
2022-08-30T09:25:27.729Z,93.40
2022-08-30T09:28:10.899Z,93.20
2022-08-30T09:30:39.495Z,92.70
2022-08-30T09:33:20.359Z,92.60
2022-08-30T09:35:54.147Z,92.30
2022-08-30T09:38:32.863Z,92.20
2022-08-30T09:41:22.924Z,91.60
2022-08-30T09:44:09.721Z,91.30
2022-08-30T09:46:56.225Z,90.80
2022-08-30T09:49:47.471Z,90.20
2022-08-30T09:52:39.341Z,89.40
2022-08-30T09:55:47.970Z,88.40
2022-08-30T09:58:39.346Z,88.30
2022-08-30T10:01:21.210Z,87.00
2022-08-30T10:04:08.604Z,87.00
2022-08-30T10:07:29.101Z,85.50
2022-08-30T10:10:06.108Z,85.10
2022-08-30T10:12:43.451Z,84.60
2022-08-30T10:15:43.804Z,83.00
2022-08-30T10:18:25.415Z,81.40
2022-08-30T10:21:26.590Z,81.10
2022-08-30T10:24:02.555Z,80.80
2022-08-30T10:26:35.847Z,80.10
2022-08-30T10:29:13.391Z,78.80
2022-08-30T10:32:29.299Z,76.80
2022-08-30T10:35:19.357Z,76.00
2022-08-30T10:38:10.728Z,75.20
2022-08-30T10:41:03.461Z,74.60
2022-08-30T10:44:01.686Z,74.70
2022-08-30T10:46:40.539Z,72.50
2022-08-30T10:49:21.501Z,73.10
2022-08-30T10:52:12.453Z,72.20
2022-08-30T10:54:50.628Z,72.30
2022-08-30T10:57:20.093Z,72.70
2022-08-30T11:00:08.504Z,70.40
2022-08-30T11:03:00.190Z,69.70
2022-08-30T11:06:04.491Z,70.20
2022-08-30T11:08:58.731Z,70.80
2022-08-30T11:11:55.998Z,69.60
2022-08-30T11:14:25.704Z,69.20
2022-08-30T11:16:59.324Z,69.00
2022-08-30T11:19:41.738Z,69.20
2022-08-30T11:22:25.608Z,68.70
2022-08-30T11:28:45.798Z,67.20
2022-08-30T11:31:40.716Z,67.10
2022-08-30T11:34:11.366Z,66.50
2022-08-30T11:36:46.197Z,66.90
2022-08-30T11:39:54.177Z,66.00
2022-08-30T11:45:52.733Z,64.80
2022-08-30T11:48:54.590Z,63.80
2022-08-30T11:55:10.049Z,62.50
2022-08-30T11:58:04.976Z,62.70
2022-08-30T12:00:40.722Z,62.30
2022-08-30T12:03:19.962Z,61.80
2022-08-30T12:05:52.451Z,61.50
2022-08-30T12:08:28.977Z,61.80
2022-08-30T12:11:00.281Z,60.70
2022-08-30T12:13:37.742Z,61.30
2022-08-30T12:16:34.883Z,60.40
2022-08-30T12:19:20.914Z,60.40
2022-08-30T12:22:05.897Z,60.40
2022-08-30T12:24:44.331Z,59.80
2022-08-30T12:27:33.645Z,59.50
2022-08-30T12:30:08.509Z,59.60
2022-08-30T12:32:50.736Z,59.40
2022-08-30T12:35:28.222Z,59.70
2022-08-30T12:38:07.226Z,59.90
2022-08-30T12:40:35.328Z,59.40
2022-08-30T12:43:17.734Z,59.60
2022-08-30T12:45:50.792Z,59.00
2022-08-30T12:48:20.281Z,59.00
2022-08-30T12:50:54.758Z,59.30
2022-08-30T12:53:34.415Z,59.40
2022-08-30T12:56:13.609Z,59.40
2022-08-30T12:58:52.074Z,59.30
2022-08-30T13:01:31.178Z,59.20
2022-08-30T13:04:19.434Z,58.70
2022-08-30T13:06:57.885Z,58.70
2022-08-30T13:09:38.365Z,59.00
2022-08-30T13:12:20.553Z,58.50
2022-08-30T13:14:52.411Z,58.10
2022-08-30T13:17:20.390Z,58.00
2022-08-30T13:20:07.554Z,58.10
2022-08-30T13:22:38.914Z,57.80
2022-08-30T13:25:09.020Z,58.00
2022-08-30T13:27:39.086Z,58.00
2022-08-30T13:30:14.758Z,57.40
2022-08-30T13:33:02.266Z,56.70
2022-08-30T13:35:31.625Z,56.70
2022-08-30T13:38:02.513Z,56.50
2022-08-30T13:40:30.023Z,56.40
2022-08-30T13:42:57.350Z,56.30
2022-08-30T13:45:41.591Z,56.20
2022-08-30T13:48:11.717Z,56.50
2022-08-30T13:50:40.105Z,56.90
2022-08-30T13:53:09.466Z,57.00
2022-08-30T13:55:44.501Z,56.90
2022-08-30T13:58:13.293Z,56.80
2022-08-30T14:00:41.282Z,56.50
2022-08-30T14:03:12.434Z,56.50
2022-08-30T14:06:04.904Z,56.60
2022-08-30T14:08:48.978Z,56.90
2022-08-30T14:11:22.991Z,57.20
2022-08-30T14:16:45.368Z,56.30
2022-08-30T14:19:15.499Z,56.60
2022-08-30T14:21:46.601Z,56.30
2022-08-30T14:24:19.909Z,56.10
2022-08-30T14:26:55.974Z,55.90
2022-08-30T14:29:30.087Z,55.40
2022-08-30T14:32:16.118Z,55.20
2022-08-30T14:34:43.404Z,55.00
2022-08-30T14:37:14.601Z,55.00
2022-08-30T14:39:42.409Z,54.70
2022-08-30T14:42:11.906Z,54.50
2022-08-30T14:44:56.327Z,54.40
2022-08-30T14:47:29.788Z,54.00
2022-08-30T14:50:00.939Z,54.50
2022-08-30T14:52:30.360Z,54.50
2022-08-30T14:55:08.509Z,54.50
2022-08-30T14:57:37.473Z,54.60
2022-08-30T15:00:11.241Z,54.60
2022-08-30T15:02:38.715Z,54.60
2022-08-30T15:05:07.086Z,54.40
2022-08-30T15:07:36.454Z,54.00
2022-08-30T15:10:07.339Z,53.90
2022-08-30T15:12:37.580Z,53.90
2022-08-30T15:15:06.344Z,53.90
2022-08-30T15:17:33.566Z,53.90
2022-08-30T15:20:00.862Z,54.00
2022-08-30T15:22:28.265Z,54.10
2022-08-30T15:24:56.129Z,54.20
2022-08-30T15:27:24.211Z,54.20
2022-08-30T15:29:51.455Z,54.50
2022-08-30T15:32:18.659Z,54.70
2022-08-30T15:34:45.922Z,55.00
2022-08-30T15:37:23.654Z,55.50
2022-08-30T15:39:53.197Z,55.70
2022-08-30T15:42:20.687Z,55.80
2022-08-30T15:44:52.933Z,55.90
2022-08-30T15:47:23.584Z,55.80
2022-08-30T15:50:05.851Z,56.50
2022-08-30T15:52:35.714Z,55.90
2022-08-30T15:55:03.316Z,55.50
2022-08-30T15:57:30.938Z,55.50
2022-08-30T15:59:58.504Z,55.20
2022-08-30T16:02:27.847Z,55.00
2022-08-30T16:04:55.394Z,55.00
2022-08-30T16:07:22.602Z,55.00
2022-08-30T16:09:50.036Z,55.10
2022-08-30T16:12:23.685Z,55.00
2022-08-30T16:14:52.037Z,55.10
2022-08-30T16:17:19.378Z,55.10
2022-08-30T16:19:46.651Z,54.90
2022-08-30T16:22:15.859Z,54.50
2022-08-30T16:24:54.616Z,54.40
2022-08-30T16:27:23.918Z,54.40
2022-08-30T16:29:53.261Z,54.60
2022-08-30T16:32:21.116Z,54.80
2022-08-30T16:34:48.325Z,55.00
2022-08-30T16:37:15.728Z,55.20
2022-08-30T16:39:45.861Z,55.50
2022-08-30T16:42:21.327Z,55.70
2022-08-30T16:44:50.035Z,55.80
2022-08-30T16:47:17.847Z,55.90
2022-08-30T16:49:45.047Z,55.90
2022-08-30T16:52:12.304Z,56.10
2022-08-30T16:54:39.538Z,56.30
2022-08-30T16:57:06.835Z,56.50
2022-08-30T16:59:34.409Z,56.60
2022-08-30T17:02:02.473Z,56.70
2022-08-30T17:04:30.896Z,56.90
2022-08-30T17:06:58.831Z,57.00
2022-08-30T17:09:26.314Z,57.10
2022-08-30T17:11:54.233Z,57.20
2022-08-30T17:14:28.136Z,57.20
2022-08-30T17:17:00.492Z,57.30
2022-08-30T17:19:28.770Z,57.40
2022-08-30T17:21:58.206Z,57.40
2022-08-30T17:24:26.804Z,57.50
2022-08-30T17:26:58.386Z,57.50
2022-08-30T17:29:25.965Z,57.60
2022-08-30T17:31:57.634Z,57.70
2022-08-30T17:34:27.672Z,57.90
2022-08-30T17:36:59.201Z,58.10
2022-08-30T17:39:30.860Z,58.30
2022-08-30T17:41:59.446Z,58.50
2022-08-30T17:44:42.444Z,58.70
2022-08-30T17:47:13.065Z,59.00
2022-08-30T17:49:40.299Z,59.20
2022-08-30T17:52:07.909Z,59.20
2022-08-30T17:54:39.211Z,59.50
2022-08-30T17:57:11.572Z,59.50
2022-08-30T17:59:40.466Z,59.60
2022-08-30T18:02:11.346Z,59.70
2022-08-30T18:04:41.923Z,59.80
2022-08-30T18:07:12.087Z,60.00
2022-08-30T18:09:41.200Z,60.00
2022-08-30T18:12:10.443Z,60.30
2022-08-30T18:14:39.349Z,60.30
2022-08-30T18:17:07.849Z,60.50
2022-08-30T18:19:36.676Z,60.60
2022-08-30T18:22:15.109Z,60.70
2022-08-30T18:24:42.637Z,60.90
2022-08-30T18:27:09.935Z,61.10
2022-08-30T18:29:39.182Z,62.10
2022-08-30T18:32:09.055Z,61.50
2022-08-30T18:34:36.626Z,61.70
2022-08-30T18:37:03.990Z,62.00
2022-08-30T18:39:34.439Z,62.20
2022-08-30T18:42:04.398Z,62.30
2022-08-30T18:44:34.886Z,62.50
2022-08-30T18:47:05.708Z,62.80
2022-08-30T18:49:35.934Z,63.00
2022-08-30T18:52:06.813Z,63.10
2022-08-30T18:54:39.070Z,63.40
2022-08-30T18:57:07.778Z,63.50
2022-08-30T18:59:38.482Z,63.60
2022-08-30T19:02:10.715Z,63.80
2022-08-30T19:04:43.387Z,64.30
2022-08-30T19:07:15.545Z,64.30
2022-08-30T19:09:43.833Z,64.60
2022-08-30T19:12:12.920Z,64.80
2022-08-30T19:14:41.113Z,65.10
2022-08-30T19:17:08.508Z,65.20
2022-08-30T19:19:45.150Z,65.70
2022-08-30T19:22:16.539Z,65.90
2022-08-30T19:24:43.695Z,66.00
2022-08-30T19:27:10.812Z,66.10
2022-08-30T19:29:38.778Z,66.50
2022-08-30T19:32:06.089Z,66.60
2022-08-30T19:34:33.367Z,66.70
2022-08-30T19:37:01.331Z,67.10
2022-08-30T19:39:29.386Z,67.50
2022-08-30T19:41:56.781Z,67.60
2022-08-30T19:44:25.701Z,67.70
2022-08-30T19:46:53.817Z,67.90
2022-08-30T19:49:23.664Z,68.20
2022-08-30T19:51:51.114Z,68.30
2022-08-30T19:54:19.659Z,68.40
2022-08-30T19:56:48.099Z,68.60
2022-08-30T19:59:18.210Z,68.80
2022-08-30T20:01:46.619Z,69.10
2022-08-30T20:04:14.665Z,69.60
2022-08-30T20:06:43.178Z,69.70
2022-08-30T20:09:11.273Z,69.80
2022-08-30T20:11:42.354Z,70.10
2022-08-30T20:14:10.900Z,70.20
2022-08-30T20:16:41.765Z,70.40
2022-08-30T20:19:12.037Z,70.60
2022-08-30T20:21:39.396Z,70.90
2022-08-30T20:24:09.806Z,71.10
2022-08-30T20:26:38.505Z,71.50
2022-08-30T20:29:07.634Z,71.60
2022-08-30T20:32:50.215Z,71.90
2022-08-30T20:35:55.047Z,72.30
2022-08-30T20:38:22.610Z,72.50
2022-08-30T20:40:57.963Z,72.60
2022-08-30T20:43:29.700Z,73.00
2022-08-30T20:45:57.657Z,73.10
2022-08-30T20:48:28.872Z,73.20
2022-08-30T20:50:56.305Z,73.60
2022-08-30T20:53:23.751Z,74.20
2022-08-30T20:55:50.858Z,74.10
2022-08-30T20:58:18.297Z,74.30
2022-08-30T21:00:51.732Z,74.70
2022-08-30T21:03:27.628Z,75.00
2022-08-30T21:05:57.022Z,75.10
2022-08-30T21:08:25.230Z,75.20
2022-08-30T21:10:53.536Z,75.30
2022-08-30T21:13:21.755Z,75.50
2022-08-30T21:16:00.201Z,75.90
2022-08-30T21:18:33.238Z,76.10
2022-08-30T21:21:13.931Z,76.90
2022-08-30T21:23:42.025Z,76.60
2022-08-30T21:26:11.022Z,76.40
2022-08-30T21:28:38.967Z,76.30
2022-08-30T21:31:17.141Z,76.60
2022-08-30T21:33:44.826Z,76.80
2022-08-30T21:36:30.896Z,76.70
2022-08-30T21:39:00.544Z,77.00
2022-08-30T21:41:30.582Z,77.10
2022-08-30T21:44:04.679Z,77.10
2022-08-30T21:46:33.551Z,77.30
2022-08-30T21:49:04.739Z,77.30
2022-08-30T21:51:41.056Z,77.50
2022-08-30T21:54:11.087Z,77.80
2022-08-30T21:56:40.873Z,77.70
2022-08-30T21:59:10.232Z,78.00
2022-08-30T22:01:39.035Z,78.20
2022-08-30T22:04:10.375Z,78.20
2022-08-30T22:06:41.794Z,78.40
2022-08-30T22:09:13.741Z,78.50
2022-08-30T22:11:43.621Z,78.60
2022-08-30T22:14:12.573Z,78.80
2022-08-30T22:16:41.678Z,79.10
2022-08-30T22:19:09.341Z,79.30
2022-08-30T22:21:38.846Z,79.50
2022-08-30T22:24:06.282Z,79.80
2022-08-30T22:26:35.562Z,79.90
2022-08-30T22:29:05.452Z,80.10
2022-08-30T22:31:32.994Z,80.30
2022-08-30T22:34:00.505Z,80.60
2022-08-30T22:36:33.082Z,81.10
2022-08-30T22:39:01.977Z,81.30
2022-08-30T22:41:34.137Z,81.30
2022-08-30T22:44:02.595Z,81.50
2022-08-30T22:46:33.954Z,81.70
2022-08-30T22:49:07.416Z,81.80
2022-08-30T22:51:35.545Z,82.00
2022-08-30T22:54:05.135Z,82.30
2022-08-30T22:56:35.860Z,82.60
2022-08-30T22:59:22.798Z,82.90
2022-08-30T23:01:59.685Z,83.60
2022-08-30T23:04:27.013Z,83.30
2022-08-30T23:06:54.372Z,83.50
2022-08-30T23:09:21.488Z,83.80
2022-08-30T23:11:50.777Z,84.10
2022-08-30T23:14:37.763Z,85.10
2022-08-30T23:17:04.990Z,85.10
2022-08-30T23:19:32.249Z,84.80
2022-08-30T23:21:59.632Z,85.20
2022-08-30T23:24:48.871Z,85.40
2022-08-30T23:27:35.059Z,85.60
2022-08-30T23:30:20.842Z,85.80
2022-08-30T23:33:06.565Z,86.00
2022-08-30T23:35:52.358Z,86.20
2022-08-30T23:38:38.183Z,86.60
2022-08-30T23:41:24.043Z,86.90
2022-08-30T23:44:19.636Z,87.10
2022-08-30T23:47:05.288Z,87.30
2022-08-30T23:49:51.021Z,87.50
2022-08-30T23:52:36.788Z,88.00
2022-08-30T23:55:24.897Z,88.50
2022-08-30T23:58:10.712Z,88.60
